sensor_id;sensor_type;location;lat;lon;timestamp;P1;durP1;ratioP1;P2;durP2;ratioP2
51636;SDS011;37713;53.254;6.460;2022-12-05T00:01:58;35.40;;;16.98;;
51636;SDS011;37713;53.254;6.460;2022-12-05T00:04:24;30.00;;;15.43;;
51636;SDS011;37713;53.254;6.460;2022-12-05T00:06:50;30.85;;;15.98;;
51636;SDS011;37713;53.254;6.460;2022-12-05T00:09:15;31.67;;;15.18;;
51636;SDS011;37713;53.254;6.460;2022-12-05T00:11:42;34.70;;;16.50;;
51636;SDS011;37713;53.254;6.460;2022-12-05T00:14:09;32.10;;;16.08;;
51636;SDS011;37713;53.254;6.460;2022-12-05T00:16:37;32.78;;;15.93;;
51636;SDS011;37713;53.254;6.460;2022-12-05T00:19:05;32.88;;;16.75;;
51636;SDS011;37713;53.254;6.460;2022-12-05T00:21:33;34.53;;;17.23;;
51636;SDS011;37713;53.254;6.460;2022-12-05T00:24:01;40.78;;;17.92;;
51636;SDS011;37713;53.254;6.460;2022-12-05T00:26:30;35.15;;;17.52;;
51636;SDS011;37713;53.254;6.460;2022-12-05T00:28:56;38.28;;;17.50;;
51636;SDS011;37713;53.254;6.460;2022-12-05T00:31:23;36.78;;;17.63;;
51636;SDS011;37713;53.254;6.460;2022-12-05T00:33:50;38.15;;;18.38;;
51636;SDS011;37713;53.254;6.460;2022-12-05T00:36:18;36.92;;;18.52;;
51636;SDS011;37713;53.254;6.460;2022-12-05T00:38:51;37.38;;;18.65;;
51636;SDS011;37713;53.254;6.460;2022-12-05T00:41:19;39.60;;;19.60;;
51636;SDS011;37713;53.254;6.460;2022-12-05T00:43:46;38.85;;;18.60;;
51636;SDS011;37713;53.254;6.460;2022-12-05T00:46:16;38.80;;;18.40;;
51636;SDS011;37713;53.254;6.460;2022-12-05T00:48:51;38.40;;;19.38;;
51636;SDS011;37713;53.254;6.460;2022-12-05T00:51:25;36.72;;;18.50;;
51636;SDS011;37713;53.254;6.460;2022-12-05T00:53:59;38.53;;;18.98;;
51636;SDS011;37713;53.254;6.460;2022-12-05T00:56:27;38.67;;;18.63;;
51636;SDS011;37713;53.254;6.460;2022-12-05T00:58:54;38.80;;;18.77;;
51636;SDS011;37713;53.254;6.460;2022-12-05T01:01:22;38.25;;;18.45;;
51636;SDS011;37713;53.254;6.460;2022-12-05T01:03:51;34.80;;;17.00;;
51636;SDS011;37713;53.254;6.460;2022-12-05T01:06:18;34.22;;;16.50;;
51636;SDS011;37713;53.254;6.460;2022-12-05T01:08:45;37.03;;;17.95;;
51636;SDS011;37713;53.254;6.460;2022-12-05T01:11:11;30.30;;;16.70;;
51636;SDS011;37713;53.254;6.460;2022-12-05T01:13:39;31.65;;;16.50;;
51636;SDS011;37713;53.254;6.460;2022-12-05T01:16:05;29.20;;;14.85;;
51636;SDS011;37713;53.254;6.460;2022-12-05T01:18:36;29.30;;;14.63;;
51636;SDS011;37713;53.254;6.460;2022-12-05T01:21:03;27.25;;;14.68;;
51636;SDS011;37713;53.254;6.460;2022-12-05T01:23:29;25.55;;;13.63;;
51636;SDS011;37713;53.254;6.460;2022-12-05T01:25:55;25.60;;;12.82;;
51636;SDS011;37713;53.254;6.460;2022-12-05T01:28:21;22.42;;;12.52;;
51636;SDS011;37713;53.254;6.460;2022-12-05T01:30:48;23.63;;;13.02;;
51636;SDS011;37713;53.254;6.460;2022-12-05T01:33:14;23.02;;;12.70;;
51636;SDS011;37713;53.254;6.460;2022-12-05T01:35:41;22.70;;;12.98;;
51636;SDS011;37713;53.254;6.460;2022-12-05T01:38:08;23.35;;;12.45;;
51636;SDS011;37713;53.254;6.460;2022-12-05T01:40:35;21.75;;;12.23;;
51636;SDS011;37713;53.254;6.460;2022-12-05T01:43:02;21.63;;;12.48;;
51636;SDS011;37713;53.254;6.460;2022-12-05T01:48:03;20.83;;;11.60;;
51636;SDS011;37713;53.254;6.460;2022-12-05T01:50:32;22.02;;;12.38;;
51636;SDS011;37713;53.254;6.460;2022-12-05T01:52:59;20.67;;;11.38;;
51636;SDS011;37713;53.254;6.460;2022-12-05T01:55:26;20.60;;;11.18;;
51636;SDS011;37713;53.254;6.460;2022-12-05T01:57:52;22.45;;;10.77;;
51636;SDS011;37713;53.254;6.460;2022-12-05T02:00:20;20.73;;;10.65;;
51636;SDS011;37713;53.254;6.460;2022-12-05T02:02:51;20.20;;;10.50;;
51636;SDS011;37713;53.254;6.460;2022-12-05T02:05:21;21.77;;;10.10;;
51636;SDS011;37713;53.254;6.460;2022-12-05T02:07:58;18.42;;;10.25;;
51636;SDS011;37713;53.254;6.460;2022-12-05T02:10:27;18.83;;;9.90;;
51636;SDS011;37713;53.254;6.460;2022-12-05T02:12:55;17.40;;;9.75;;
51636;SDS011;37713;53.254;6.460;2022-12-05T02:29:29;17.40;;;9.23;;
51636;SDS011;37713;53.254;6.460;2022-12-05T02:40:25;16.40;;;8.52;;
51636;SDS011;37713;53.254;6.460;2022-12-05T02:43:14;16.90;;;8.68;;
51636;SDS011;37713;53.254;6.460;2022-12-05T02:45:49;17.80;;;8.65;;
51636;SDS011;37713;53.254;6.460;2022-12-05T02:48:20;17.35;;;8.45;;
51636;SDS011;37713;53.254;6.460;2022-12-05T02:50:50;19.25;;;8.43;;
51636;SDS011;37713;53.254;6.460;2022-12-05T02:53:16;19.05;;;8.40;;
51636;SDS011;37713;53.254;6.460;2022-12-05T02:55:45;16.10;;;8.02;;
51636;SDS011;37713;53.254;6.460;2022-12-05T02:58:22;16.83;;;7.95;;
51636;SDS011;37713;53.254;6.460;2022-12-05T03:00:56;13.90;;;7.22;;
51636;SDS011;37713;53.254;6.460;2022-12-05T03:03:22;14.73;;;8.00;;
51636;SDS011;37713;53.254;6.460;2022-12-05T03:05:52;15.63;;;7.90;;
51636;SDS011;37713;53.254;6.460;2022-12-05T03:08:37;11.95;;;6.80;;
51636;SDS011;37713;53.254;6.460;2022-12-05T03:11:12;16.30;;;7.28;;
51636;SDS011;37713;53.254;6.460;2022-12-05T03:13:58;12.20;;;7.75;;
51636;SDS011;37713;53.254;6.460;2022-12-05T03:18:56;13.13;;;7.60;;
51636;SDS011;37713;53.254;6.460;2022-12-05T03:34:14;13.95;;;7.13;;
51636;SDS011;37713;53.254;6.460;2022-12-05T03:36:48;12.73;;;7.65;;
51636;SDS011;37713;53.254;6.460;2022-12-05T03:39:26;18.88;;;7.70;;
51636;SDS011;37713;53.254;6.460;2022-12-05T03:44:43;14.48;;;7.57;;
51636;SDS011;37713;53.254;6.460;2022-12-05T03:47:24;15.52;;;7.38;;
51636;SDS011;37713;53.254;6.460;2022-12-05T03:49:57;15.10;;;7.13;;
51636;SDS011;37713;53.254;6.460;2022-12-05T03:52:29;15.15;;;7.05;;
51636;SDS011;37713;53.254;6.460;2022-12-05T03:55:00;16.50;;;7.57;;
51636;SDS011;37713;53.254;6.460;2022-12-05T04:00:11;13.55;;;7.45;;
51636;SDS011;37713;53.254;6.460;2022-12-05T04:07:48;13.75;;;7.00;;
51636;SDS011;37713;53.254;6.460;2022-12-05T04:10:24;14.73;;;7.00;;
51636;SDS011;37713;53.254;6.460;2022-12-05T04:12:54;14.30;;;7.90;;
51636;SDS011;37713;53.254;6.460;2022-12-05T04:15:27;15.30;;;7.20;;
51636;SDS011;37713;53.254;6.460;2022-12-05T04:18:16;16.00;;;7.70;;
51636;SDS011;37713;53.254;6.460;2022-12-05T04:20:45;15.32;;;7.68;;
51636;SDS011;37713;53.254;6.460;2022-12-05T04:23:31;14.93;;;7.75;;
51636;SDS011;37713;53.254;6.460;2022-12-05T04:28:37;16.02;;;7.28;;
51636;SDS011;37713;53.254;6.460;2022-12-05T04:31:23;16.25;;;7.85;;
51636;SDS011;37713;53.254;6.460;2022-12-05T04:33:58;16.83;;;7.43;;
51636;SDS011;37713;53.254;6.460;2022-12-05T04:39:07;17.58;;;8.32;;
51636;SDS011;37713;53.254;6.460;2022-12-05T04:44:29;14.88;;;7.28;;
51636;SDS011;37713;53.254;6.460;2022-12-05T04:47:07;16.10;;;8.02;;
51636;SDS011;37713;53.254;6.460;2022-12-05T04:49:34;16.50;;;7.80;;
51636;SDS011;37713;53.254;6.460;2022-12-05T04:52:07;15.95;;;8.43;;
51636;SDS011;37713;53.254;6.460;2022-12-05T04:54:36;18.25;;;8.52;;
51636;SDS011;37713;53.254;6.460;2022-12-05T04:57:17;15.65;;;8.40;;
51636;SDS011;37713;53.254;6.460;2022-12-05T04:59:48;17.92;;;8.27;;
51636;SDS011;37713;53.254;6.460;2022-12-05T05:02:16;16.00;;;7.78;;
51636;SDS011;37713;53.254;6.460;2022-12-05T05:04:47;15.55;;;8.80;;
51636;SDS011;37713;53.254;6.460;2022-12-05T05:07:16;17.35;;;8.02;;
51636;SDS011;37713;53.254;6.460;2022-12-05T05:09:43;16.02;;;8.15;;
51636;SDS011;37713;53.254;6.460;2022-12-05T05:12:10;17.95;;;8.82;;
51636;SDS011;37713;53.254;6.460;2022-12-05T05:14:36;16.42;;;7.57;;
51636;SDS011;37713;53.254;6.460;2022-12-05T05:17:02;17.38;;;8.98;;
51636;SDS011;37713;53.254;6.460;2022-12-05T05:19:28;16.23;;;8.75;;
51636;SDS011;37713;53.254;6.460;2022-12-05T05:21:54;18.30;;;9.25;;
51636;SDS011;37713;53.254;6.460;2022-12-05T05:24:20;19.60;;;8.25;;
51636;SDS011;37713;53.254;6.460;2022-12-05T05:26:47;22.02;;;11.88;;
51636;SDS011;37713;53.254;6.460;2022-12-05T05:29:16;17.00;;;9.07;;
51636;SDS011;37713;53.254;6.460;2022-12-05T05:31:42;22.17;;;10.50;;
51636;SDS011;37713;53.254;6.460;2022-12-05T05:34:09;23.38;;;10.55;;
51636;SDS011;37713;53.254;6.460;2022-12-05T05:36:36;20.00;;;8.77;;
51636;SDS011;37713;53.254;6.460;2022-12-05T05:39:02;23.10;;;10.15;;
51636;SDS011;37713;53.254;6.460;2022-12-05T05:41:31;16.38;;;8.55;;
51636;SDS011;37713;53.254;6.460;2022-12-05T05:43:58;17.80;;;9.13;;
51636;SDS011;37713;53.254;6.460;2022-12-05T05:46:26;17.80;;;8.77;;
51636;SDS011;37713;53.254;6.460;2022-12-05T05:48:55;16.38;;;8.00;;
51636;SDS011;37713;53.254;6.460;2022-12-05T05:51:21;17.30;;;8.45;;
51636;SDS011;37713;53.254;6.460;2022-12-05T05:53:53;16.65;;;8.15;;
51636;SDS011;37713;53.254;6.460;2022-12-05T05:56:20;15.57;;;7.70;;
51636;SDS011;37713;53.254;6.460;2022-12-05T05:58:47;16.10;;;8.18;;
51636;SDS011;37713;53.254;6.460;2022-12-05T06:01:19;20.00;;;8.82;;
51636;SDS011;37713;53.254;6.460;2022-12-05T06:03:45;16.80;;;8.20;;
51636;SDS011;37713;53.254;6.460;2022-12-05T06:06:11;27.00;;;12.57;;
51636;SDS011;37713;53.254;6.460;2022-12-05T06:08:39;19.08;;;8.68;;
51636;SDS011;37713;53.254;6.460;2022-12-05T06:11:19;16.05;;;7.90;;
51636;SDS011;37713;53.254;6.460;2022-12-05T06:13:47;15.82;;;8.48;;
51636;SDS011;37713;53.254;6.460;2022-12-05T06:16:14;15.93;;;8.30;;
51636;SDS011;37713;53.254;6.460;2022-12-05T06:18:41;16.67;;;8.93;;
51636;SDS011;37713;53.254;6.460;2022-12-05T06:21:07;16.75;;;8.05;;
51636;SDS011;37713;53.254;6.460;2022-12-05T06:23:34;16.58;;;9.23;;
51636;SDS011;37713;53.254;6.460;2022-12-05T06:26:01;16.30;;;8.20;;
51636;SDS011;37713;53.254;6.460;2022-12-05T06:28:28;17.17;;;7.65;;
51636;SDS011;37713;53.254;6.460;2022-12-05T06:30:54;15.55;;;7.20;;
51636;SDS011;37713;53.254;6.460;2022-12-05T06:33:20;16.88;;;8.20;;
51636;SDS011;37713;53.254;6.460;2022-12-05T06:35:46;16.33;;;7.88;;
51636;SDS011;37713;53.254;6.460;2022-12-05T06:38:12;15.57;;;8.30;;
51636;SDS011;37713;53.254;6.460;2022-12-05T06:40:41;14.52;;;7.50;;
51636;SDS011;37713;53.254;6.460;2022-12-05T06:43:08;17.88;;;8.63;;
51636;SDS011;37713;53.254;6.460;2022-12-05T06:45:38;14.63;;;7.55;;
51636;SDS011;37713;53.254;6.460;2022-12-05T06:48:04;17.73;;;7.97;;
51636;SDS011;37713;53.254;6.460;2022-12-05T06:50:30;15.63;;;8.68;;
51636;SDS011;37713;53.254;6.460;2022-12-05T06:52:55;17.38;;;9.05;;
51636;SDS011;37713;53.254;6.460;2022-12-05T06:55:21;28.27;;;14.85;;
51636;SDS011;37713;53.254;6.460;2022-12-05T06:57:47;19.42;;;9.95;;
51636;SDS011;37713;53.254;6.460;2022-12-05T07:00:13;20.35;;;9.60;;
51636;SDS011;37713;53.254;6.460;2022-12-05T07:02:58;18.42;;;9.25;;
51636;SDS011;37713;53.254;6.460;2022-12-05T07:05:23;18.38;;;8.90;;
51636;SDS011;37713;53.254;6.460;2022-12-05T07:07:49;16.10;;;8.15;;
51636;SDS011;37713;53.254;6.460;2022-12-05T07:10:15;17.45;;;7.95;;
51636;SDS011;37713;53.254;6.460;2022-12-05T07:12:41;20.60;;;8.20;;
51636;SDS011;37713;53.254;6.460;2022-12-05T07:15:07;17.35;;;8.25;;
51636;SDS011;37713;53.254;6.460;2022-12-05T07:17:36;18.08;;;7.72;;
51636;SDS011;37713;53.254;6.460;2022-12-05T07:20:04;15.57;;;7.80;;
51636;SDS011;37713;53.254;6.460;2022-12-05T07:22:31;17.27;;;7.97;;
51636;SDS011;37713;53.254;6.460;2022-12-05T07:24:59;19.05;;;8.32;;
51636;SDS011;37713;53.254;6.460;2022-12-05T07:27:25;18.27;;;8.25;;
51636;SDS011;37713;53.254;6.460;2022-12-05T07:29:51;17.58;;;7.78;;
51636;SDS011;37713;53.254;6.460;2022-12-05T07:32:17;17.92;;;7.82;;
51636;SDS011;37713;53.254;6.460;2022-12-05T07:34:42;17.13;;;8.63;;
51636;SDS011;37713;53.254;6.460;2022-12-05T07:37:08;18.83;;;8.63;;
51636;SDS011;37713;53.254;6.460;2022-12-05T07:39:34;17.23;;;7.78;;
51636;SDS011;37713;53.254;6.460;2022-12-05T07:42:00;16.70;;;7.65;;
51636;SDS011;37713;53.254;6.460;2022-12-05T07:44:25;19.48;;;8.65;;
51636;SDS011;37713;53.254;6.460;2022-12-05T07:46:51;19.52;;;7.90;;
51636;SDS011;37713;53.254;6.460;2022-12-05T07:49:18;17.80;;;7.05;;
51636;SDS011;37713;53.254;6.460;2022-12-05T07:51:44;19.08;;;7.93;;
51636;SDS011;37713;53.254;6.460;2022-12-05T07:54:10;15.38;;;7.65;;
51636;SDS011;37713;53.254;6.460;2022-12-05T07:56:35;17.17;;;7.55;;
51636;SDS011;37713;53.254;6.460;2022-12-05T07:59:01;22.38;;;9.20;;
51636;SDS011;37713;53.254;6.460;2022-12-05T08:01:29;17.90;;;7.47;;
51636;SDS011;37713;53.254;6.460;2022-12-05T08:03:55;24.50;;;10.68;;
51636;SDS011;37713;53.254;6.460;2022-12-05T08:06:23;21.95;;;9.30;;
51636;SDS011;37713;53.254;6.460;2022-12-05T08:08:54;24.25;;;8.93;;
51636;SDS011;37713;53.254;6.460;2022-12-05T08:11:21;17.60;;;7.35;;
51636;SDS011;37713;53.254;6.460;2022-12-05T08:13:49;15.98;;;7.50;;
51636;SDS011;37713;53.254;6.460;2022-12-05T08:16:16;16.70;;;6.68;;
51636;SDS011;37713;53.254;6.460;2022-12-05T08:18:44;21.05;;;7.78;;
51636;SDS011;37713;53.254;6.460;2022-12-05T08:21:11;16.73;;;8.00;;
51636;SDS011;37713;53.254;6.460;2022-12-05T08:23:39;19.40;;;8.23;;
51636;SDS011;37713;53.254;6.460;2022-12-05T08:26:10;19.67;;;9.52;;
51636;SDS011;37713;53.254;6.460;2022-12-05T08:28:38;16.00;;;6.50;;
51636;SDS011;37713;53.254;6.460;2022-12-05T08:31:05;17.08;;;7.00;;
51636;SDS011;37713;53.254;6.460;2022-12-05T08:33:33;18.57;;;6.70;;
51636;SDS011;37713;53.254;6.460;2022-12-05T08:36:00;16.70;;;5.97;;
51636;SDS011;37713;53.254;6.460;2022-12-05T08:38:27;18.50;;;6.82;;
51636;SDS011;37713;53.254;6.460;2022-12-05T08:40:53;19.70;;;6.43;;
51636;SDS011;37713;53.254;6.460;2022-12-05T08:43:18;16.35;;;6.15;;
51636;SDS011;37713;53.254;6.460;2022-12-05T08:45:48;18.58;;;6.45;;
51636;SDS011;37713;53.254;6.460;2022-12-05T08:48:17;16.40;;;7.25;;
51636;SDS011;37713;53.254;6.460;2022-12-05T08:50:43;15.95;;;6.95;;
51636;SDS011;37713;53.254;6.460;2022-12-05T08:53:09;16.75;;;6.57;;
51636;SDS011;37713;53.254;6.460;2022-12-05T08:55:35;17.85;;;7.55;;
51636;SDS011;37713;53.254;6.460;2022-12-05T08:58:01;19.70;;;7.55;;
51636;SDS011;37713;53.254;6.460;2022-12-05T09:00:27;15.85;;;7.10;;
51636;SDS011;37713;53.254;6.460;2022-12-05T09:02:53;15.25;;;7.15;;
51636;SDS011;37713;53.254;6.460;2022-12-05T09:05:19;21.10;;;7.97;;
51636;SDS011;37713;53.254;6.460;2022-12-05T09:07:46;21.05;;;8.07;;
51636;SDS011;37713;53.254;6.460;2022-12-05T09:10:12;17.60;;;7.97;;
51636;SDS011;37713;53.254;6.460;2022-12-05T09:12:38;17.02;;;7.68;;
51636;SDS011;37713;53.254;6.460;2022-12-05T09:15:07;17.77;;;8.10;;
51636;SDS011;37713;53.254;6.460;2022-12-05T09:17:34;18.77;;;8.30;;
51636;SDS011;37713;53.254;6.460;2022-12-05T09:20:00;17.83;;;8.35;;
51636;SDS011;37713;53.254;6.460;2022-12-05T09:22:26;20.20;;;9.00;;
51636;SDS011;37713;53.254;6.460;2022-12-05T09:24:52;16.50;;;8.32;;
51636;SDS011;37713;53.254;6.460;2022-12-05T09:27:17;22.08;;;8.38;;
51636;SDS011;37713;53.254;6.460;2022-12-05T09:29:43;20.92;;;8.88;;
51636;SDS011;37713;53.254;6.460;2022-12-05T09:32:09;21.55;;;8.55;;
51636;SDS011;37713;53.254;6.460;2022-12-05T09:34:35;18.92;;;8.02;;
51636;SDS011;37713;53.254;6.460;2022-12-05T09:37:05;20.95;;;8.52;;
51636;SDS011;37713;53.254;6.460;2022-12-05T09:39:31;20.02;;;8.82;;
51636;SDS011;37713;53.254;6.460;2022-12-05T09:42:02;20.25;;;8.20;;
51636;SDS011;37713;53.254;6.460;2022-12-05T09:52:43;17.83;;;8.52;;
51636;SDS011;37713;53.254;6.460;2022-12-05T09:55:46;21.48;;;8.05;;
51636;SDS011;37713;53.254;6.460;2022-12-05T09:58:33;18.10;;;8.50;;
51636;SDS011;37713;53.254;6.460;2022-12-05T10:06:49;19.60;;;8.20;;
51636;SDS011;37713;53.254;6.460;2022-12-05T10:20:55;17.63;;;8.82;;
51636;SDS011;37713;53.254;6.460;2022-12-05T10:23:33;22.20;;;9.07;;
51636;SDS011;37713;53.254;6.460;2022-12-05T10:26:04;17.38;;;8.15;;
51636;SDS011;37713;53.254;6.460;2022-12-05T10:28:39;19.83;;;8.57;;
51636;SDS011;37713;53.254;6.460;2022-12-05T10:31:13;18.27;;;8.75;;
51636;SDS011;37713;53.254;6.460;2022-12-05T10:33:44;20.10;;;8.27;;
51636;SDS011;37713;53.254;6.460;2022-12-05T10:36:14;18.63;;;8.55;;
51636;SDS011;37713;53.254;6.460;2022-12-05T10:38:41;21.30;;;8.57;;
51636;SDS011;37713;53.254;6.460;2022-12-05T10:41:09;19.58;;;9.50;;
51636;SDS011;37713;53.254;6.460;2022-12-05T10:43:38;20.98;;;9.10;;
51636;SDS011;37713;53.254;6.460;2022-12-05T10:46:07;26.27;;;9.23;;
51636;SDS011;37713;53.254;6.460;2022-12-05T10:48:34;20.83;;;8.98;;
51636;SDS011;37713;53.254;6.460;2022-12-05T10:51:02;19.33;;;8.75;;
51636;SDS011;37713;53.254;6.460;2022-12-05T10:53:45;21.75;;;10.63;;
51636;SDS011;37713;53.254;6.460;2022-12-05T10:56:35;22.08;;;10.48;;
51636;SDS011;37713;53.254;6.460;2022-12-05T10:59:03;21.98;;;10.38;;
51636;SDS011;37713;53.254;6.460;2022-12-05T11:01:29;19.23;;;8.38;;
51636;SDS011;37713;53.254;6.460;2022-12-05T11:03:57;16.55;;;8.43;;
51636;SDS011;37713;53.254;6.460;2022-12-05T11:06:28;17.20;;;7.63;;
51636;SDS011;37713;53.254;6.460;2022-12-05T11:09:04;16.33;;;8.45;;
51636;SDS011;37713;53.254;6.460;2022-12-05T11:11:56;15.75;;;8.15;;
51636;SDS011;37713;53.254;6.460;2022-12-05T11:14:27;16.58;;;6.93;;
51636;SDS011;37713;53.254;6.460;2022-12-05T11:16:55;17.35;;;7.63;;
51636;SDS011;37713;53.254;6.460;2022-12-05T11:19:27;14.13;;;6.57;;
51636;SDS011;37713;53.254;6.460;2022-12-05T11:21:56;17.05;;;7.70;;
51636;SDS011;37713;53.254;6.460;2022-12-05T11:29:39;14.32;;;6.38;;
51636;SDS011;37713;53.254;6.460;2022-12-05T11:32:15;17.10;;;6.78;;
51636;SDS011;37713;53.254;6.460;2022-12-05T11:34:51;13.95;;;6.13;;
51636;SDS011;37713;53.254;6.460;2022-12-05T11:37:34;11.82;;;5.88;;
51636;SDS011;37713;53.254;6.460;2022-12-05T11:40:13;19.13;;;5.90;;
51636;SDS011;37713;53.254;6.460;2022-12-05T11:51:39;14.27;;;6.25;;
51636;SDS011;37713;53.254;6.460;2022-12-05T12:00:04;10.15;;;5.25;;
51636;SDS011;37713;53.254;6.460;2022-12-05T12:03:02;11.18;;;4.90;;
51636;SDS011;37713;53.254;6.460;2022-12-05T12:08:59;9.60;;;3.88;;
51636;SDS011;37713;53.254;6.460;2022-12-05T12:17:15;10.85;;;4.00;;
51636;SDS011;37713;53.254;6.460;2022-12-05T12:23:10;10.77;;;3.97;;
51636;SDS011;37713;53.254;6.460;2022-12-05T12:31:14;8.88;;;4.15;;
51636;SDS011;37713;53.254;6.460;2022-12-05T12:36:47;12.52;;;3.85;;
51636;SDS011;37713;53.254;6.460;2022-12-05T12:39:49;10.02;;;4.07;;
51636;SDS011;37713;53.254;6.460;2022-12-05T12:42:26;10.18;;;3.80;;
51636;SDS011;37713;53.254;6.460;2022-12-05T12:45:01;7.10;;;3.20;;
51636;SDS011;37713;53.254;6.460;2022-12-05T12:50:43;9.32;;;3.80;;
51636;SDS011;37713;53.254;6.460;2022-12-05T12:58:49;9.10;;;3.53;;
51636;SDS011;37713;53.254;6.460;2022-12-05T13:01:38;9.45;;;3.20;;
51636;SDS011;37713;53.254;6.460;2022-12-05T13:04:27;8.90;;;3.72;;
51636;SDS011;37713;53.254;6.460;2022-12-05T13:09:54;10.07;;;3.97;;
51636;SDS011;37713;53.254;6.460;2022-12-05T13:12:25;9.95;;;3.78;;
51636;SDS011;37713;53.254;6.460;2022-12-05T13:14:57;10.30;;;4.40;;
51636;SDS011;37713;53.254;6.460;2022-12-05T13:17:25;8.95;;;4.40;;
51636;SDS011;37713;53.254;6.460;2022-12-05T13:19:54;9.82;;;4.07;;
51636;SDS011;37713;53.254;6.460;2022-12-05T13:22:22;11.85;;;4.47;;
51636;SDS011;37713;53.254;6.460;2022-12-05T13:24:50;11.98;;;4.70;;
51636;SDS011;37713;53.254;6.460;2022-12-05T13:27:18;11.60;;;5.13;;
51636;SDS011;37713;53.254;6.460;2022-12-05T13:29:58;12.68;;;5.30;;
51636;SDS011;37713;53.254;6.460;2022-12-05T13:35:10;10.85;;;4.30;;
51636;SDS011;37713;53.254;6.460;2022-12-05T13:38:01;10.00;;;4.65;;
51636;SDS011;37713;53.254;6.460;2022-12-05T13:40:49;12.30;;;5.32;;
51636;SDS011;37713;53.254;6.460;2022-12-05T13:43:43;9.27;;;4.22;;
51636;SDS011;37713;53.254;6.460;2022-12-05T13:46:33;14.93;;;5.10;;
51636;SDS011;37713;53.254;6.460;2022-12-05T13:49:11;11.65;;;3.60;;
51636;SDS011;37713;53.254;6.460;2022-12-05T13:51:42;9.98;;;3.95;;
51636;SDS011;37713;53.254;6.460;2022-12-05T13:54:11;11.38;;;3.72;;
51636;SDS011;37713;53.254;6.460;2022-12-05T13:56:57;13.95;;;4.20;;
51636;SDS011;37713;53.254;6.460;2022-12-05T14:03:54;10.13;;;4.35;;
51636;SDS011;37713;53.254;6.460;2022-12-05T14:13:00;9.82;;;4.20;;
51636;SDS011;37713;53.254;6.460;2022-12-05T14:15:48;14.13;;;6.57;;
51636;SDS011;37713;53.254;6.460;2022-12-05T14:24:08;11.48;;;4.88;;
51636;SDS011;37713;53.254;6.460;2022-12-05T14:32:35;14.60;;;5.13;;
51636;SDS011;37713;53.254;6.460;2022-12-05T14:42:58;10.00;;;4.05;;
51636;SDS011;37713;53.254;6.460;2022-12-05T14:45:40;11.32;;;4.57;;
51636;SDS011;37713;53.254;6.460;2022-12-05T14:48:37;11.82;;;5.45;;
51636;SDS011;37713;53.254;6.460;2022-12-05T14:56:30;10.35;;;4.43;;
51636;SDS011;37713;53.254;6.460;2022-12-05T14:59:03;10.35;;;4.20;;
51636;SDS011;37713;53.254;6.460;2022-12-05T15:01:39;12.60;;;4.57;;
51636;SDS011;37713;53.254;6.460;2022-12-05T15:06:58;9.60;;;4.05;;
51636;SDS011;37713;53.254;6.460;2022-12-05T15:12:11;13.00;;;4.65;;
51636;SDS011;37713;53.254;6.460;2022-12-05T15:14:49;11.07;;;4.18;;
51636;SDS011;37713;53.254;6.460;2022-12-05T15:17:21;13.13;;;4.53;;
51636;SDS011;37713;53.254;6.460;2022-12-05T15:20:36;13.07;;;4.78;;
51636;SDS011;37713;53.254;6.460;2022-12-05T15:26:01;10.75;;;4.30;;
51636;SDS011;37713;53.254;6.460;2022-12-05T15:28:27;10.85;;;4.10;;
51636;SDS011;37713;53.254;6.460;2022-12-05T15:30:54;11.00;;;3.90;;
51636;SDS011;37713;53.254;6.460;2022-12-05T15:33:21;13.50;;;5.25;;
51636;SDS011;37713;53.254;6.460;2022-12-05T15:35:48;12.95;;;5.35;;
51636;SDS011;37713;53.254;6.460;2022-12-05T15:38:19;16.65;;;6.32;;
51636;SDS011;37713;53.254;6.460;2022-12-05T15:40:49;9.80;;;4.63;;
51636;SDS011;37713;53.254;6.460;2022-12-05T15:43:26;11.63;;;4.65;;
51636;SDS011;37713;53.254;6.460;2022-12-05T15:48:53;11.52;;;5.25;;
51636;SDS011;37713;53.254;6.460;2022-12-05T15:51:20;11.77;;;5.00;;
51636;SDS011;37713;53.254;6.460;2022-12-05T15:54:08;15.18;;;6.05;;
51636;SDS011;37713;53.254;6.460;2022-12-05T15:56:49;12.45;;;5.65;;
51636;SDS011;37713;53.254;6.460;2022-12-05T15:59:21;12.38;;;5.47;;
51636;SDS011;37713;53.254;6.460;2022-12-05T16:01:53;15.05;;;6.53;;
51636;SDS011;37713;53.254;6.460;2022-12-05T16:04:31;15.80;;;6.03;;
51636;SDS011;37713;53.254;6.460;2022-12-05T16:07:02;10.38;;;4.78;;
51636;SDS011;37713;53.254;6.460;2022-12-05T16:09:31;13.02;;;5.07;;
51636;SDS011;37713;53.254;6.460;2022-12-05T16:12:02;10.85;;;4.60;;
51636;SDS011;37713;53.254;6.460;2022-12-05T16:14:35;18.55;;;12.05;;
51636;SDS011;37713;53.254;6.460;2022-12-05T16:17:03;10.45;;;5.45;;
51636;SDS011;37713;53.254;6.460;2022-12-05T16:19:31;16.02;;;7.82;;
51636;SDS011;37713;53.254;6.460;2022-12-05T16:22:40;15.25;;;7.00;;
51636;SDS011;37713;53.254;6.460;2022-12-05T16:27:23;12.50;;;6.13;;
51636;SDS011;37713;53.254;6.460;2022-12-05T16:32:33;15.02;;;6.18;;
51636;SDS011;37713;53.254;6.460;2022-12-05T16:34:59;14.95;;;6.30;;
51636;SDS011;37713;53.254;6.460;2022-12-05T16:37:26;14.60;;;6.47;;
51636;SDS011;37713;53.254;6.460;2022-12-05T16:39:54;14.88;;;6.18;;
51636;SDS011;37713;53.254;6.460;2022-12-05T16:44:52;14.18;;;7.18;;
51636;SDS011;37713;53.254;6.460;2022-12-05T16:47:48;17.02;;;9.80;;
51636;SDS011;37713;53.254;6.460;2022-12-05T16:50:24;13.32;;;6.95;;
51636;SDS011;37713;53.254;6.460;2022-12-05T16:53:12;14.55;;;6.43;;
51636;SDS011;37713;53.254;6.460;2022-12-05T16:55:42;14.75;;;7.50;;
51636;SDS011;37713;53.254;6.460;2022-12-05T16:58:14;14.70;;;8.85;;
51636;SDS011;37713;53.254;6.460;2022-12-05T17:00:46;27.02;;;17.13;;
51636;SDS011;37713;53.254;6.460;2022-12-05T17:03:12;13.55;;;7.85;;
51636;SDS011;37713;53.254;6.460;2022-12-05T17:05:38;16.23;;;8.30;;
51636;SDS011;37713;53.254;6.460;2022-12-05T17:08:04;14.30;;;7.75;;
51636;SDS011;37713;53.254;6.460;2022-12-05T17:10:30;11.48;;;5.72;;
51636;SDS011;37713;53.254;6.460;2022-12-05T17:12:56;24.83;;;14.88;;
51636;SDS011;37713;53.254;6.460;2022-12-05T17:15:24;15.95;;;9.02;;
51636;SDS011;37713;53.254;6.460;2022-12-05T17:17:50;20.05;;;11.30;;
51636;SDS011;37713;53.254;6.460;2022-12-05T17:20:38;11.27;;;6.47;;
51636;SDS011;37713;53.254;6.460;2022-12-05T17:23:05;12.48;;;6.30;;
51636;SDS011;37713;53.254;6.460;2022-12-05T17:25:34;9.45;;;4.25;;
51636;SDS011;37713;53.254;6.460;2022-12-05T17:28:02;9.57;;;4.57;;
51636;SDS011;37713;53.254;6.460;2022-12-05T17:30:28;11.65;;;5.30;;
51636;SDS011;37713;53.254;6.460;2022-12-05T17:32:54;11.13;;;5.38;;
51636;SDS011;37713;53.254;6.460;2022-12-05T17:35:20;11.20;;;4.45;;
51636;SDS011;37713;53.254;6.460;2022-12-05T17:37:47;10.35;;;4.25;;
51636;SDS011;37713;53.254;6.460;2022-12-05T17:40:14;9.05;;;4.18;;
51636;SDS011;37713;53.254;6.460;2022-12-05T17:42:40;15.88;;;8.55;;
51636;SDS011;37713;53.254;6.460;2022-12-05T17:45:08;19.25;;;10.55;;
51636;SDS011;37713;53.254;6.460;2022-12-05T17:47:36;12.07;;;5.60;;
51636;SDS011;37713;53.254;6.460;2022-12-05T17:50:03;12.13;;;6.85;;
51636;SDS011;37713;53.254;6.460;2022-12-05T17:52:30;10.30;;;4.78;;
51636;SDS011;37713;53.254;6.460;2022-12-05T17:54:56;13.90;;;4.20;;
51636;SDS011;37713;53.254;6.460;2022-12-05T17:57:22;12.55;;;5.85;;
51636;SDS011;37713;53.254;6.460;2022-12-05T17:59:48;11.23;;;4.50;;
51636;SDS011;37713;53.254;6.460;2022-12-05T18:02:14;14.13;;;4.78;;
51636;SDS011;37713;53.254;6.460;2022-12-05T18:04:43;12.57;;;4.65;;
51636;SDS011;37713;53.254;6.460;2022-12-05T18:07:08;10.50;;;5.40;;
51636;SDS011;37713;53.254;6.460;2022-12-05T18:09:34;14.10;;;4.55;;